sensor_id;sensor_type;location;lat;lon;timestamp;temperature;humidity
53876;DHT22;39789;53.216;5.624;2023-05-29T00:00:05;9.80;78.60
53876;DHT22;39789;53.216;5.624;2023-05-29T00:02:34;9.80;78.60
53876;DHT22;39789;53.216;5.624;2023-05-29T00:05:00;9.70;78.50
53876;DHT22;39789;53.216;5.624;2023-05-29T00:07:29;9.70;78.60
53876;DHT22;39789;53.216;5.624;2023-05-29T00:09:55;9.70;78.60
53876;DHT22;39789;53.216;5.624;2023-05-29T00:12:21;9.70;78.60
53876;DHT22;39789;53.216;5.624;2023-05-29T00:14:48;9.70;78.60
53876;DHT22;39789;53.216;5.624;2023-05-29T00:17:14;9.70;78.70
53876;DHT22;39789;53.216;5.624;2023-05-29T00:19:41;9.70;78.70
53876;DHT22;39789;53.216;5.624;2023-05-29T00:22:06;9.70;78.60
53876;DHT22;39789;53.216;5.624;2023-05-29T00:24:32;9.60;78.60
53876;DHT22;39789;53.216;5.624;2023-05-29T00:26:58;9.60;78.60
53876;DHT22;39789;53.216;5.624;2023-05-29T00:29:23;9.60;78.60
53876;DHT22;39789;53.216;5.624;2023-05-29T00:31:49;9.60;79.40
53876;DHT22;39789;53.216;5.624;2023-05-29T00:34:15;9.60;78.70
53876;DHT22;39789;53.216;5.624;2023-05-29T00:36:40;9.50;78.70
53876;DHT22;39789;53.216;5.624;2023-05-29T00:39:06;9.50;78.70
53876;DHT22;39789;53.216;5.624;2023-05-29T00:41:31;9.50;78.80
53876;DHT22;39789;53.216;5.624;2023-05-29T00:43:57;9.50;79.50
53876;DHT22;39789;53.216;5.624;2023-05-29T00:46:22;9.50;79.20
53876;DHT22;39789;53.216;5.624;2023-05-29T00:48:48;9.50;78.70
53876;DHT22;39789;53.216;5.624;2023-05-29T00:51:15;9.50;78.60
53876;DHT22;39789;53.216;5.624;2023-05-29T00:53:42;9.50;78.60
53876;DHT22;39789;53.216;5.624;2023-05-29T00:56:09;9.50;78.70
53876;DHT22;39789;53.216;5.624;2023-05-29T00:58:35;9.50;79.30
53876;DHT22;39789;53.216;5.624;2023-05-29T01:01:02;9.50;78.70
53876;DHT22;39789;53.216;5.624;2023-05-29T01:03:28;9.60;78.60
53876;DHT22;39789;53.216;5.624;2023-05-29T01:05:54;9.60;78.40
53876;DHT22;39789;53.216;5.624;2023-05-29T01:08:20;9.60;78.20
53876;DHT22;39789;53.216;5.624;2023-05-29T01:10:46;9.70;78.10
53876;DHT22;39789;53.216;5.624;2023-05-29T01:13:21;9.70;77.90
53876;DHT22;39789;53.216;5.624;2023-05-29T01:16:12;9.70;77.90
53876;DHT22;39789;53.216;5.624;2023-05-29T01:18:57;9.70;77.80
53876;DHT22;39789;53.216;5.624;2023-05-29T01:21:56;9.80;77.60
53876;DHT22;39789;53.216;5.624;2023-05-29T01:26:59;9.80;77.10
53876;DHT22;39789;53.216;5.624;2023-05-29T01:29:28;9.80;76.70
53876;DHT22;39789;53.216;5.624;2023-05-29T01:31:54;9.80;76.10
53876;DHT22;39789;53.216;5.624;2023-05-29T01:34:21;9.90;75.80
53876;DHT22;39789;53.216;5.624;2023-05-29T01:36:47;9.90;75.80
53876;DHT22;39789;53.216;5.624;2023-05-29T01:39:13;9.90;75.70
53876;DHT22;39789;53.216;5.624;2023-05-29T01:41:39;9.80;75.60
53876;DHT22;39789;53.216;5.624;2023-05-29T01:44:06;9.80;75.50
53876;DHT22;39789;53.216;5.624;2023-05-29T01:46:37;9.80;75.50
53876;DHT22;39789;53.216;5.624;2023-05-29T01:49:03;9.80;75.20
53876;DHT22;39789;53.216;5.624;2023-05-29T01:51:29;9.80;75.10
53876;DHT22;39789;53.216;5.624;2023-05-29T01:53:57;9.80;74.90
53876;DHT22;39789;53.216;5.624;2023-05-29T01:56:24;9.90;74.70
53876;DHT22;39789;53.216;5.624;2023-05-29T01:58:53;9.90;74.60
53876;DHT22;39789;53.216;5.624;2023-05-29T02:01:21;9.90;74.50
53876;DHT22;39789;53.216;5.624;2023-05-29T02:03:46;9.90;74.30
53876;DHT22;39789;53.216;5.624;2023-05-29T02:06:12;9.90;74.30
53876;DHT22;39789;53.216;5.624;2023-05-29T02:08:37;9.90;74.10
53876;DHT22;39789;53.216;5.624;2023-05-29T02:11:03;9.90;74.00
53876;DHT22;39789;53.216;5.624;2023-05-29T02:13:29;9.90;73.80
53876;DHT22;39789;53.216;5.624;2023-05-29T02:15:54;9.90;73.90
53876;DHT22;39789;53.216;5.624;2023-05-29T02:18:20;9.90;73.90
53876;DHT22;39789;53.216;5.624;2023-05-29T02:20:45;9.90;73.90
53876;DHT22;39789;53.216;5.624;2023-05-29T02:23:11;9.90;73.80
53876;DHT22;39789;53.216;5.624;2023-05-29T02:25:37;10.00;74.00
53876;DHT22;39789;53.216;5.624;2023-05-29T02:28:04;10.00;74.00
53876;DHT22;39789;53.216;5.624;2023-05-29T02:30:30;10.00;74.00
53876;DHT22;39789;53.216;5.624;2023-05-29T02:32:56;10.00;74.10
53876;DHT22;39789;53.216;5.624;2023-05-29T02:35:21;10.00;74.10
53876;DHT22;39789;53.216;5.624;2023-05-29T02:37:51;10.00;74.10
53876;DHT22;39789;53.216;5.624;2023-05-29T02:40:17;10.00;74.20
53876;DHT22;39789;53.216;5.624;2023-05-29T02:42:44;10.10;74.30
53876;DHT22;39789;53.216;5.624;2023-05-29T02:45:10;10.10;74.50
53876;DHT22;39789;53.216;5.624;2023-05-29T02:47:36;10.10;74.50
53876;DHT22;39789;53.216;5.624;2023-05-29T02:50:02;10.20;74.60
53876;DHT22;39789;53.216;5.624;2023-05-29T02:52:28;10.20;74.80
53876;DHT22;39789;53.216;5.624;2023-05-29T02:54:53;10.20;74.80
53876;DHT22;39789;53.216;5.624;2023-05-29T02:57:22;10.20;74.90
53876;DHT22;39789;53.216;5.624;2023-05-29T02:59:48;10.20;75.00
53876;DHT22;39789;53.216;5.624;2023-05-29T03:02:14;10.20;74.90
53876;DHT22;39789;53.216;5.624;2023-05-29T03:04:39;10.30;75.00
53876;DHT22;39789;53.216;5.624;2023-05-29T03:07:05;10.30;75.10
53876;DHT22;39789;53.216;5.624;2023-05-29T03:09:32;10.30;75.00
53876;DHT22;39789;53.216;5.624;2023-05-29T03:11:58;10.40;74.70
53876;DHT22;39789;53.216;5.624;2023-05-29T03:14:26;10.40;73.30
53876;DHT22;39789;53.216;5.624;2023-05-29T03:16:53;10.50;73.30
53876;DHT22;39789;53.216;5.624;2023-05-29T03:19:18;10.50;73.00
53876;DHT22;39789;53.216;5.624;2023-05-29T03:21:44;10.50;72.60
53876;DHT22;39789;53.216;5.624;2023-05-29T03:24:10;10.50;72.70
53876;DHT22;39789;53.216;5.624;2023-05-29T03:26:36;10.50;72.70
53876;DHT22;39789;53.216;5.624;2023-05-29T03:29:02;10.50;72.60
53876;DHT22;39789;53.216;5.624;2023-05-29T03:31:28;10.50;72.30
53876;DHT22;39789;53.216;5.624;2023-05-29T03:33:53;10.50;71.80
53876;DHT22;39789;53.216;5.624;2023-05-29T03:36:19;10.50;71.50
53876;DHT22;39789;53.216;5.624;2023-05-29T03:38:44;10.50;71.30
53876;DHT22;39789;53.216;5.624;2023-05-29T03:41:10;10.50;71.00
53876;DHT22;39789;53.216;5.624;2023-05-29T03:43:36;10.50;71.00
53876;DHT22;39789;53.216;5.624;2023-05-29T03:46:01;10.50;71.10
53876;DHT22;39789;53.216;5.624;2023-05-29T03:48:27;10.50;71.20
53876;DHT22;39789;53.216;5.624;2023-05-29T03:50:52;10.50;71.20
53876;DHT22;39789;53.216;5.624;2023-05-29T03:53:18;10.50;71.20
53876;DHT22;39789;53.216;5.624;2023-05-29T03:55:44;10.50;71.30
53876;DHT22;39789;53.216;5.624;2023-05-29T03:58:09;10.50;71.50
53876;DHT22;39789;53.216;5.624;2023-05-29T04:00:37;10.50;71.50
53876;DHT22;39789;53.216;5.624;2023-05-29T04:03:03;10.50;71.60
53876;DHT22;39789;53.216;5.624;2023-05-29T04:05:29;10.50;71.70
53876;DHT22;39789;53.216;5.624;2023-05-29T04:07:55;10.50;72.00
53876;DHT22;39789;53.216;5.624;2023-05-29T04:10:21;10.50;72.10
53876;DHT22;39789;53.216;5.624;2023-05-29T04:12:46;10.50;72.20
53876;DHT22;39789;53.216;5.624;2023-05-29T04:15:12;10.50;72.00
53876;DHT22;39789;53.216;5.624;2023-05-29T04:17:37;10.50;71.50
53876;DHT22;39789;53.216;5.624;2023-05-29T04:20:03;10.50;71.60
53876;DHT22;39789;53.216;5.624;2023-05-29T04:22:37;10.60;71.60
53876;DHT22;39789;53.216;5.624;2023-05-29T04:25:03;10.50;71.40
53876;DHT22;39789;53.216;5.624;2023-05-29T04:27:30;10.60;71.40
53876;DHT22;39789;53.216;5.624;2023-05-29T04:29:57;10.60;71.50
53876;DHT22;39789;53.216;5.624;2023-05-29T04:32:23;10.60;71.50
53876;DHT22;39789;53.216;5.624;2023-05-29T04:34:49;10.60;71.50
53876;DHT22;39789;53.216;5.624;2023-05-29T04:37:14;10.60;71.60
53876;DHT22;39789;53.216;5.624;2023-05-29T04:39:40;10.60;71.80
53876;DHT22;39789;53.216;5.624;2023-05-29T04:42:06;10.70;71.90
53876;DHT22;39789;53.216;5.624;2023-05-29T04:44:32;10.70;72.00
53876;DHT22;39789;53.216;5.624;2023-05-29T04:46:58;10.70;71.70
53876;DHT22;39789;53.216;5.624;2023-05-29T04:49:24;10.80;71.70
53876;DHT22;39789;53.216;5.624;2023-05-29T04:51:50;10.80;71.30
53876;DHT22;39789;53.216;5.624;2023-05-29T04:54:18;10.80;71.00
53876;DHT22;39789;53.216;5.624;2023-05-29T04:56:45;10.90;70.80
53876;DHT22;39789;53.216;5.624;2023-05-29T04:59:11;10.90;70.90
53876;DHT22;39789;53.216;5.624;2023-05-29T05:01:37;10.90;70.80
53876;DHT22;39789;53.216;5.624;2023-05-29T05:04:03;11.00;70.90
53876;DHT22;39789;53.216;5.624;2023-05-29T05:06:28;11.00;70.90
53876;DHT22;39789;53.216;5.624;2023-05-29T05:08:54;11.00;70.70
53876;DHT22;39789;53.216;5.624;2023-05-29T05:11:22;11.10;70.50
53876;DHT22;39789;53.216;5.624;2023-05-29T05:13:48;11.10;70.60
53876;DHT22;39789;53.216;5.624;2023-05-29T05:16:13;11.10;69.90
53876;DHT22;39789;53.216;5.624;2023-05-29T05:18:39;11.10;70.10
53876;DHT22;39789;53.216;5.624;2023-05-29T05:21:05;11.50;70.00
53876;DHT22;39789;53.216;5.624;2023-05-29T05:23:31;11.10;69.30
53876;DHT22;39789;53.216;5.624;2023-05-29T05:25:59;11.10;69.60
53876;DHT22;39789;53.216;5.624;2023-05-29T05:28:25;11.20;69.50
53876;DHT22;39789;53.216;5.624;2023-05-29T05:30:51;11.20;69.50
53876;DHT22;39789;53.216;5.624;2023-05-29T05:33:17;11.10;69.60
53876;DHT22;39789;53.216;5.624;2023-05-29T05:35:42;11.10;69.80
53876;DHT22;39789;53.216;5.624;2023-05-29T05:38:08;11.10;70.00
53876;DHT22;39789;53.216;5.624;2023-05-29T05:40:34;11.10;70.10
53876;DHT22;39789;53.216;5.624;2023-05-29T05:43:00;11.20;70.00
53876;DHT22;39789;53.216;5.624;2023-05-29T05:45:26;11.20;69.70
53876;DHT22;39789;53.216;5.624;2023-05-29T05:47:51;11.20;69.70
53876;DHT22;39789;53.216;5.624;2023-05-29T05:50:17;11.20;70.10
53876;DHT22;39789;53.216;5.624;2023-05-29T05:52:42;11.20;69.80
53876;DHT22;39789;53.216;5.624;2023-05-29T05:55:08;11.20;69.40
53876;DHT22;39789;53.216;5.624;2023-05-29T05:57:34;11.20;69.20
53876;DHT22;39789;53.216;5.624;2023-05-29T06:00:04;11.20;69.70
53876;DHT22;39789;53.216;5.624;2023-05-29T06:02:33;11.20;69.10
53876;DHT22;39789;53.216;5.624;2023-05-29T06:04:58;11.20;69.00
53876;DHT22;39789;53.216;5.624;2023-05-29T06:07:24;11.20;69.30
53876;DHT22;39789;53.216;5.624;2023-05-29T06:09:50;11.20;69.30
53876;DHT22;39789;53.216;5.624;2023-05-29T06:12:15;11.30;69.30
53876;DHT22;39789;53.216;5.624;2023-05-29T06:14:41;11.30;69.40
53876;DHT22;39789;53.216;5.624;2023-05-29T06:17:07;11.50;69.50
53876;DHT22;39789;53.216;5.624;2023-05-29T06:19:33;11.60;69.40
53876;DHT22;39789;53.216;5.624;2023-05-29T06:21:58;11.70;68.70
53876;DHT22;39789;53.216;5.624;2023-05-29T06:24:24;12.20;69.10
53876;DHT22;39789;53.216;5.624;2023-05-29T06:26:49;11.90;68.90
53876;DHT22;39789;53.216;5.624;2023-05-29T06:29:15;12.10;68.80
53876;DHT22;39789;53.216;5.624;2023-05-29T06:31:41;12.10;69.30
53876;DHT22;39789;53.216;5.624;2023-05-29T06:34:07;12.20;67.90
53876;DHT22;39789;53.216;5.624;2023-05-29T06:36:32;12.10;67.20
53876;DHT22;39789;53.216;5.624;2023-05-29T06:38:58;11.90;67.20
53876;DHT22;39789;53.216;5.624;2023-05-29T06:41:24;11.80;67.80
53876;DHT22;39789;53.216;5.624;2023-05-29T06:43:50;11.80;68.00
53876;DHT22;39789;53.216;5.624;2023-05-29T06:46:17;11.90;68.20
53876;DHT22;39789;53.216;5.624;2023-05-29T06:48:42;11.90;68.20
53876;DHT22;39789;53.216;5.624;2023-05-29T06:51:11;11.90;68.40
53876;DHT22;39789;53.216;5.624;2023-05-29T06:53:41;12.00;67.80
53876;DHT22;39789;53.216;5.624;2023-05-29T06:56:07;12.00;67.10
53876;DHT22;39789;53.216;5.624;2023-05-29T06:58:33;12.10;67.40
53876;DHT22;39789;53.216;5.624;2023-05-29T07:00:58;12.20;67.50
53876;DHT22;39789;53.216;5.624;2023-05-29T07:03:27;12.30;67.30
53876;DHT22;39789;53.216;5.624;2023-05-29T07:05:53;12.30;66.50
53876;DHT22;39789;53.216;5.624;2023-05-29T07:08:19;12.20;66.40
53876;DHT22;39789;53.216;5.624;2023-05-29T07:10:44;12.20;66.70
53876;DHT22;39789;53.216;5.624;2023-05-29T07:13:14;12.20;67.10
53876;DHT22;39789;53.216;5.624;2023-05-29T07:15:40;12.10;67.10
53876;DHT22;39789;53.216;5.624;2023-05-29T07:18:06;12.10;67.30
53876;DHT22;39789;53.216;5.624;2023-05-29T07:20:31;12.20;67.80
53876;DHT22;39789;53.216;5.624;2023-05-29T07:22:57;12.20;67.50
53876;DHT22;39789;53.216;5.624;2023-05-29T07:25:22;12.20;67.40
53876;DHT22;39789;53.216;5.624;2023-05-29T07:27:48;12.10;67.30
53876;DHT22;39789;53.216;5.624;2023-05-29T07:30:14;12.00;67.30
53876;DHT22;39789;53.216;5.624;2023-05-29T07:32:40;12.10;67.70
53876;DHT22;39789;53.216;5.624;2023-05-29T07:35:05;12.20;68.00
53876;DHT22;39789;53.216;5.624;2023-05-29T07:37:31;12.50;67.80
53876;DHT22;39789;53.216;5.624;2023-05-29T07:39:57;12.90;67.60
53876;DHT22;39789;53.216;5.624;2023-05-29T07:42:23;13.10;65.10
53876;DHT22;39789;53.216;5.624;2023-05-29T07:44:48;13.00;65.30
53876;DHT22;39789;53.216;5.624;2023-05-29T07:47:14;12.80;65.60
53876;DHT22;39789;53.216;5.624;2023-05-29T07:49:40;12.60;65.60
53876;DHT22;39789;53.216;5.624;2023-05-29T07:52:06;12.50;65.90
53876;DHT22;39789;53.216;5.624;2023-05-29T07:54:32;12.60;65.70
53876;DHT22;39789;53.216;5.624;2023-05-29T07:57:00;12.90;65.90
53876;DHT22;39789;53.216;5.624;2023-05-29T07:59:28;13.10;65.50
53876;DHT22;39789;53.216;5.624;2023-05-29T08:01:54;13.10;65.20
53876;DHT22;39789;53.216;5.624;2023-05-29T08:04:23;13.50;64.90
53876;DHT22;39789;53.216;5.624;2023-05-29T08:06:50;13.60;64.40
53876;DHT22;39789;53.216;5.624;2023-05-29T08:09:16;14.00;63.50
53876;DHT22;39789;53.216;5.624;2023-05-29T08:11:42;14.40;62.60
53876;DHT22;39789;53.216;5.624;2023-05-29T08:14:12;14.40;61.40
53876;DHT22;39789;53.216;5.624;2023-05-29T08:16:37;14.50;61.20
53876;DHT22;39789;53.216;5.624;2023-05-29T08:19:03;14.40;60.70
53876;DHT22;39789;53.216;5.624;2023-05-29T08:21:29;14.30;61.50
53876;DHT22;39789;53.216;5.624;2023-05-29T08:23:57;14.20;61.30
53876;DHT22;39789;53.216;5.624;2023-05-29T08:26:23;14.40;62.20
53876;DHT22;39789;53.216;5.624;2023-05-29T08:28:48;14.40;62.40
53876;DHT22;39789;53.216;5.624;2023-05-29T08:31:14;14.60;62.10
53876;DHT22;39789;53.216;5.624;2023-05-29T08:33:39;14.70;61.50
53876;DHT22;39789;53.216;5.624;2023-05-29T08:36:05;14.50;60.90
53876;DHT22;39789;53.216;5.624;2023-05-29T08:38:31;14.20;60.80
53876;DHT22;39789;53.216;5.624;2023-05-29T08:40:57;14.10;61.60
53876;DHT22;39789;53.216;5.624;2023-05-29T08:43:30;13.80;61.50
53876;DHT22;39789;53.216;5.624;2023-05-29T08:46:00;13.70;61.40
53876;DHT22;39789;53.216;5.624;2023-05-29T08:48:27;13.80;62.60
53876;DHT22;39789;53.216;5.624;2023-05-29T08:50:56;13.70;63.20
53876;DHT22;39789;53.216;5.624;2023-05-29T08:53:22;13.50;62.40
53876;DHT22;39789;53.216;5.624;2023-05-29T08:55:48;13.40;63.10
53876;DHT22;39789;53.216;5.624;2023-05-29T08:58:17;13.30;63.70
53876;DHT22;39789;53.216;5.624;2023-05-29T09:00:46;13.20;63.60
53876;DHT22;39789;53.216;5.624;2023-05-29T09:03:12;13.00;63.80
53876;DHT22;39789;53.216;5.624;2023-05-29T09:05:39;13.00;64.20
53876;DHT22;39789;53.216;5.624;2023-05-29T09:08:09;13.00;64.10
53876;DHT22;39789;53.216;5.624;2023-05-29T09:10:38;13.00;63.90
53876;DHT22;39789;53.216;5.624;2023-05-29T09:13:05;13.00;64.00
53876;DHT22;39789;53.216;5.624;2023-05-29T09:15:31;13.00;64.80
53876;DHT22;39789;53.216;5.624;2023-05-29T09:17:57;13.00;63.90
53876;DHT22;39789;53.216;5.624;2023-05-29T09:20:24;13.00;64.50
53876;DHT22;39789;53.216;5.624;2023-05-29T09:23:00;13.00;64.90
53876;DHT22;39789;53.216;5.624;2023-05-29T09:25:31;13.00;65.40
53876;DHT22;39789;53.216;5.624;2023-05-29T09:30:45;13.10;65.50
53876;DHT22;39789;53.216;5.624;2023-05-29T09:33:13;13.10;65.80
53876;DHT22;39789;53.216;5.624;2023-05-29T09:35:40;13.20;65.40
53876;DHT22;39789;53.216;5.624;2023-05-29T09:38:07;13.20;65.30
53876;DHT22;39789;53.216;5.624;2023-05-29T09:40:37;13.20;65.00
53876;DHT22;39789;53.216;5.624;2023-05-29T09:43:05;13.20;64.60
53876;DHT22;39789;53.216;5.624;2023-05-29T09:45:33;13.10;64.80
53876;DHT22;39789;53.216;5.624;2023-05-29T09:47:58;13.20;64.90
53876;DHT22;39789;53.216;5.624;2023-05-29T09:50:27;13.00;64.70
53876;DHT22;39789;53.216;5.624;2023-05-29T09:52:57;12.90;64.70
53876;DHT22;39789;53.216;5.624;2023-05-29T09:55:24;12.90;64.90
53876;DHT22;39789;53.216;5.624;2023-05-29T09:57:53;12.80;64.60
53876;DHT22;39789;53.216;5.624;2023-05-29T10:00:19;12.80;65.10
53876;DHT22;39789;53.216;5.624;2023-05-29T10:02:45;12.90;65.40
53876;DHT22;39789;53.216;5.624;2023-05-29T10:05:11;13.00;65.60
53876;DHT22;39789;53.216;5.624;2023-05-29T10:07:40;13.10;65.30
53876;DHT22;39789;53.216;5.624;2023-05-29T10:10:08;13.30;65.30
53876;DHT22;39789;53.216;5.624;2023-05-29T10:12:38;13.50;64.70
53876;DHT22;39789;53.216;5.624;2023-05-29T10:15:09;13.60;64.20
53876;DHT22;39789;53.216;5.624;2023-05-29T10:17:38;13.60;64.30
53876;DHT22;39789;53.216;5.624;2023-05-29T10:20:05;13.70;64.00
53876;DHT22;39789;53.216;5.624;2023-05-29T10:22:33;13.70;64.00
53876;DHT22;39789;53.216;5.624;2023-05-29T10:24:59;13.70;64.20
53876;DHT22;39789;53.216;5.624;2023-05-29T10:27:26;13.70;63.80
53876;DHT22;39789;53.216;5.624;2023-05-29T10:35:48;14.00;62.80
53876;DHT22;39789;53.216;5.624;2023-05-29T10:38:17;13.90;63.10
53876;DHT22;39789;53.216;5.624;2023-05-29T10:40:44;13.90;63.20
53876;DHT22;39789;53.216;5.624;2023-05-29T10:43:31;14.00;63.10
53876;DHT22;39789;53.216;5.624;2023-05-29T10:45:57;14.00;62.00
53876;DHT22;39789;53.216;5.624;2023-05-29T10:50:54;14.00;63.70
53876;DHT22;39789;53.216;5.624;2023-05-29T10:53:25;14.00;63.90
53876;DHT22;39789;53.216;5.624;2023-05-29T10:55:52;13.90;63.50
53876;DHT22;39789;53.216;5.624;2023-05-29T10:58:19;13.80;64.40
53876;DHT22;39789;53.216;5.624;2023-05-29T11:00:45;13.80;63.70
53876;DHT22;39789;53.216;5.624;2023-05-29T11:03:14;13.90;63.60
53876;DHT22;39789;53.216;5.624;2023-05-29T11:06:07;13.70;63.70
53876;DHT22;39789;53.216;5.624;2023-05-29T11:08:46;13.80;63.80
53876;DHT22;39789;53.216;5.624;2023-05-29T11:11:13;13.90;63.70
53876;DHT22;39789;53.216;5.624;2023-05-29T11:13:39;13.90;64.40
53876;DHT22;39789;53.216;5.624;2023-05-29T11:16:16;13.80;64.20
53876;DHT22;39789;53.216;5.624;2023-05-29T11:18:46;13.80;64.80
53876;DHT22;39789;53.216;5.624;2023-05-29T11:21:22;13.90;64.70
53876;DHT22;39789;53.216;5.624;2023-05-29T11:23:50;13.90;63.70
53876;DHT22;39789;53.216;5.624;2023-05-29T11:26:17;13.90;63.00
53876;DHT22;39789;53.216;5.624;2023-05-29T11:28:43;14.00;63.60
53876;DHT22;39789;53.216;5.624;2023-05-29T11:31:09;14.10;63.10
53876;DHT22;39789;53.216;5.624;2023-05-29T11:33:41;14.80;63.40
53876;DHT22;39789;53.216;5.624;2023-05-29T11:36:12;14.30;62.30
53876;DHT22;39789;53.216;5.624;2023-05-29T11:38:37;14.40;62.00
53876;DHT22;39789;53.216;5.624;2023-05-29T11:41:03;14.40;61.20
53876;DHT22;39789;53.216;5.624;2023-05-29T11:43:29;14.40;60.70
53876;DHT22;39789;53.216;5.624;2023-05-29T11:45:55;14.40;62.00
53876;DHT22;39789;53.216;5.624;2023-05-29T11:48:20;14.40;62.50
53876;DHT22;39789;53.216;5.624;2023-05-29T11:50:47;14.50;62.20
53876;DHT22;39789;53.216;5.624;2023-05-29T11:53:12;14.40;62.30
53876;DHT22;39789;53.216;5.624;2023-05-29T11:55:38;14.40;62.80
53876;DHT22;39789;53.216;5.624;2023-05-29T11:58:04;14.50;62.90
53876;DHT22;39789;53.216;5.624;2023-05-29T12:00:38;14.50;61.60
53876;DHT22;39789;53.216;5.624;2023-05-29T12:03:06;14.50;62.50
53876;DHT22;39789;53.216;5.624;2023-05-29T12:05:44;14.50;61.50
53876;DHT22;39789;53.216;5.624;2023-05-29T12:08:10;14.40;62.80
53876;DHT22;39789;53.216;5.624;2023-05-29T12:10:35;14.40;62.20
53876;DHT22;39789;53.216;5.624;2023-05-29T12:13:01;14.40;62.50
53876;DHT22;39789;53.216;5.624;2023-05-29T12:15:27;14.40;62.20
53876;DHT22;39789;53.216;5.624;2023-05-29T12:17:54;14.40;62.50
53876;DHT22;39789;53.216;5.624;2023-05-29T12:20:23;14.40;60.90
53876;DHT22;39789;53.216;5.624;2023-05-29T12:22:49;14.30;61.40
53876;DHT22;39789;53.216;5.624;2023-05-29T12:25:16;14.40;61.90
53876;DHT22;39789;53.216;5.624;2023-05-29T12:27:44;14.40;62.60
53876;DHT22;39789;53.216;5.624;2023-05-29T12:32:44;14.20;62.60
53876;DHT22;39789;53.216;5.624;2023-05-29T12:35:20;14.20;62.20
53876;DHT22;39789;53.216;5.624;2023-05-29T12:37:56;14.10;62.00
53876;DHT22;39789;53.216;5.624;2023-05-29T12:42:55;14.10;62.50
53876;DHT22;39789;53.216;5.624;2023-05-29T12:45:25;14.40;62.90
53876;DHT22;39789;53.216;5.624;2023-05-29T12:47:56;14.50;62.70
53876;DHT22;39789;53.216;5.624;2023-05-29T12:50:27;14.50;61.30
53876;DHT22;39789;53.216;5.624;2023-05-29T12:53:13;14.60;62.10
53876;DHT22;39789;53.216;5.624;2023-05-29T12:55:41;14.60;60.60
53876;DHT22;39789;53.216;5.624;2023-05-29T12:58:09;14.60;62.10
53876;DHT22;39789;53.216;5.624;2023-05-29T13:00:37;14.60;61.50
53876;DHT22;39789;53.216;5.624;2023-05-29T13:03:04;14.60;61.80
53876;DHT22;39789;53.216;5.624;2023-05-29T13:05:31;14.60;62.00
53876;DHT22;39789;53.216;5.624;2023-05-29T13:07:57;14.40;62.20
53876;DHT22;39789;53.216;5.624;2023-05-29T13:10:24;14.40;62.20
53876;DHT22;39789;53.216;5.624;2023-05-29T13:12:51;14.50;62.40
53876;DHT22;39789;53.216;5.624;2023-05-29T13:15:21;15.20;62.70
53876;DHT22;39789;53.216;5.624;2023-05-29T13:17:46;14.70;62.40
53876;DHT22;39789;53.216;5.624;2023-05-29T13:20:13;14.80;62.50
53876;DHT22;39789;53.216;5.624;2023-05-29T13:22:40;14.70;62.00
53876;DHT22;39789;53.216;5.624;2023-05-29T13:25:07;14.60;60.20
53876;DHT22;39789;53.216;5.624;2023-05-29T13:27:35;14.50;60.20
53876;DHT22;39789;53.216;5.624;2023-05-29T13:30:01;14.40;59.60
53876;DHT22;39789;53.216;5.624;2023-05-29T13:32:27;14.40;60.70
53876;DHT22;39789;53.216;5.624;2023-05-29T13:34:52;14.40;61.10
53876;DHT22;39789;53.216;5.624;2023-05-29T13:37:18;14.50;61.10
53876;DHT22;39789;53.216;5.624;2023-05-29T13:39:44;14.40;61.20
53876;DHT22;39789;53.216;5.624;2023-05-29T13:42:10;14.40;62.00
53876;DHT22;39789;53.216;5.624;2023-05-29T13:44:37;14.50;61.20
53876;DHT22;39789;53.216;5.624;2023-05-29T13:47:02;14.40;61.60
53876;DHT22;39789;53.216;5.624;2023-05-29T13:49:28;14.40;61.50
53876;DHT22;39789;53.216;5.624;2023-05-29T13:51:57;14.40;62.10
53876;DHT22;39789;53.216;5.624;2023-05-29T13:54:22;14.50;62.40
53876;DHT22;39789;53.216;5.624;2023-05-29T13:56:48;14.70;60.10
53876;DHT22;39789;53.216;5.624;2023-05-29T13:59:14;14.70;59.00
53876;DHT22;39789;53.216;5.624;2023-05-29T14:01:44;14.80;58.60
53876;DHT22;39789;53.216;5.624;2023-05-29T14:04:09;14.70;58.30
53876;DHT22;39789;53.216;5.624;2023-05-29T14:06:35;14.50;58.70
53876;DHT22;39789;53.216;5.624;2023-05-29T14:09:02;14.50;59.70
53876;DHT22;39789;53.216;5.624;2023-05-29T14:11:28;14.80;59.60
53876;DHT22;39789;53.216;5.624;2023-05-29T14:13:53;14.60;59.30
53876;DHT22;39789;53.216;5.624;2023-05-29T14:16:19;14.60;56.90
53876;DHT22;39789;53.216;5.624;2023-05-29T14:18:45;14.60;58.20
53876;DHT22;39789;53.216;5.624;2023-05-29T14:21:10;14.70;58.10
53876;DHT22;39789;53.216;5.624;2023-05-29T14:23:37;14.80;59.20
53876;DHT22;39789;53.216;5.624;2023-05-29T14:26:03;14.90;59.20
53876;DHT22;39789;53.216;5.624;2023-05-29T14:28:29;14.90;58.80
53876;DHT22;39789;53.216;5.624;2023-05-29T14:30:55;15.00;58.70
53876;DHT22;39789;53.216;5.624;2023-05-29T14:33:20;15.00;57.90
53876;DHT22;39789;53.216;5.624;2023-05-29T14:35:46;14.90;58.40
53876;DHT22;39789;53.216;5.624;2023-05-29T14:38:11;15.00;58.40
53876;DHT22;39789;53.216;5.624;2023-05-29T14:40:37;15.00;58.60
53876;DHT22;39789;53.216;5.624;2023-05-29T14:43:03;15.10;58.90
53876;DHT22;39789;53.216;5.624;2023-05-29T14:45:28;14.80;58.20
53876;DHT22;39789;53.216;5.624;2023-05-29T14:47:54;14.60;58.10
53876;DHT22;39789;53.216;5.624;2023-05-29T14:50:20;14.60;59.10
53876;DHT22;39789;53.216;5.624;2023-05-29T14:52:46;14.60;58.10
53876;DHT22;39789;53.216;5.624;2023-05-29T14:55:13;14.50;59.80
53876;DHT22;39789;53.216;5.624;2023-05-29T14:57:40;14.50;58.90
53876;DHT22;39789;53.216;5.624;2023-05-29T15:00:07;14.50;58.40
53876;DHT22;39789;53.216;5.624;2023-05-29T15:02:33;14.40;59.00
53876;DHT22;39789;53.216;5.624;2023-05-29T15:04:58;14.50;59.90
53876;DHT22;39789;53.216;5.624;2023-05-29T15:07:24;14.50;60.00
53876;DHT22;39789;53.216;5.624;2023-05-29T15:09:49;14.40;60.10
53876;DHT22;39789;53.216;5.624;2023-05-29T15:12:15;14.40;60.80
53876;DHT22;39789;53.216;5.624;2023-05-29T15:14:41;14.50;59.80
53876;DHT22;39789;53.216;5.624;2023-05-29T15:17:06;14.40;59.10
53876;DHT22;39789;53.216;5.624;2023-05-29T15:19:32;14.40;60.00
53876;DHT22;39789;53.216;5.624;2023-05-29T15:21:58;14.50;59.90
53876;DHT22;39789;53.216;5.624;2023-05-29T15:24:23;14.60;59.00
53876;DHT22;39789;53.216;5.624;2023-05-29T15:26:49;14.40;60.00
53876;DHT22;39789;53.216;5.624;2023-05-29T15:29:15;14.40;61.50
53876;DHT22;39789;53.216;5.624;2023-05-29T15:31:41;14.30;61.60
53876;DHT22;39789;53.216;5.624;2023-05-29T15:34:07;14.40;61.90
53876;DHT22;39789;53.216;5.624;2023-05-29T15:36:33;14.40;59.90
53876;DHT22;39789;53.216;5.624;2023-05-29T15:38:58;14.30;61.00
53876;DHT22;39789;53.216;5.624;2023-05-29T15:41:27;14.40;61.00
53876;DHT22;39789;53.216;5.624;2023-05-29T15:43:54;14.30;61.10
53876;DHT22;39789;53.216;5.624;2023-05-29T15:46:21;14.30;60.90
53876;DHT22;39789;53.216;5.624;2023-05-29T15:48:46;14.30;61.60